createdAt,value
2017-04-10T03:00:43.834Z,58.44
2017-04-10T03:01:09.402Z,58.63
2017-04-10T03:01:34.966Z,58.44
2017-04-10T03:02:00.526Z,58.44
2017-04-10T03:02:26.163Z,58.72
2017-04-10T03:02:51.721Z,58.44
2017-04-10T03:03:17.272Z,58.63
2017-04-10T03:03:42.832Z,58.53
2017-04-10T03:04:08.470Z,58.44
2017-04-10T03:04:34.022Z,58.53
2017-04-10T03:04:59.560Z,58.72
2017-04-10T03:05:25.104Z,58.63
2017-04-10T03:05:50.651Z,58.53
2017-04-10T03:06:16.232Z,58.63
2017-04-10T03:06:41.801Z,58.53
2017-04-10T03:07:07.374Z,58.63
2017-04-10T03:07:32.932Z,58.63
2017-04-10T03:07:58.488Z,58.63
2017-04-10T03:08:24.139Z,58.72
2017-04-10T03:08:49.691Z,58.63
2017-04-10T03:09:15.344Z,58.63
2017-04-10T03:09:40.891Z,58.63
2017-04-10T03:10:06.506Z,58.72
2017-04-10T03:10:32.073Z,58.53
2017-04-10T03:10:57.645Z,58.53
2017-04-10T03:11:23.323Z,58.63
2017-04-10T03:11:48.891Z,58.53
2017-04-10T03:12:14.451Z,58.44
2017-04-10T03:12:40.021Z,58.53
2017-04-10T03:13:05.700Z,58.63
2017-04-10T03:13:31.242Z,58.63
2017-04-10T03:13:56.791Z,58.63
2017-04-10T03:14:22.340Z,58.63
2017-04-10T03:14:47.901Z,58.53
2017-04-10T03:15:13.499Z,58.72
2017-04-10T03:16:06.794Z,58.53
2017-04-10T03:16:32.364Z,58.72
2017-04-10T03:16:58.118Z,58.72
2017-04-10T03:17:23.683Z,58.63
2017-04-10T03:17:49.235Z,58.63
2017-04-10T03:18:14.811Z,58.63
2017-04-10T03:18:40.394Z,58.72
2017-04-10T03:19:05.939Z,58.63
2017-04-10T03:19:31.497Z,58.63
2017-04-10T03:19:57.053Z,58.63
2017-04-10T03:20:22.629Z,58.72
2017-04-10T03:20:48.236Z,58.63
2017-04-10T03:21:13.783Z,58.53
2017-04-10T03:21:39.353Z,58.63
2017-04-10T03:22:05.011Z,58.63
2017-04-10T03:22:30.684Z,58.53
2017-04-10T03:22:56.307Z,58.72
2017-04-10T03:23:21.853Z,58.63
2017-04-10T03:23:47.409Z,58.72
2017-04-10T03:24:12.974Z,58.63
2017-04-10T03:24:38.535Z,58.72
2017-04-10T03:25:04.091Z,58.63
2017-04-10T03:25:29.713Z,58.72
2017-04-10T03:25:55.284Z,58.24
2017-04-10T03:26:20.841Z,58.63
2017-04-10T03:26:46.395Z,58.53
2017-04-10T03:27:11.952Z,58.72
2017-04-10T03:27:37.654Z,58.63
2017-04-10T03:28:03.232Z,58.63
2017-04-10T03:28:28.885Z,58.72
2017-04-10T03:28:54.438Z,58.72
2017-04-10T03:29:19.994Z,58.53
2017-04-10T03:29:45.548Z,58.72
2017-04-10T03:30:11.081Z,58.63
2017-04-10T03:30:36.642Z,58.53
2017-04-10T03:31:02.167Z,58.72
2017-04-10T03:31:27.699Z,58.34
2017-04-10T03:31:53.247Z,58.72
2017-04-10T03:32:18.795Z,58.15
2017-04-10T03:32:44.349Z,58.24
2017-04-10T03:33:09.915Z,58.72
2017-04-10T03:33:35.534Z,58.44
2017-04-10T03:34:01.076Z,58.72
2017-04-10T03:34:26.661Z,58.72
2017-04-10T03:34:52.215Z,58.34
2017-04-10T03:35:17.784Z,58.72
2017-04-10T03:35:43.365Z,58.72
2017-04-10T03:36:08.923Z,58.72
2017-04-10T03:36:34.494Z,58.72
2017-04-10T03:37:00.211Z,58.72
2017-04-10T03:37:25.754Z,58.72
2017-04-10T03:37:51.331Z,58.34
2017-04-10T03:38:16.883Z,58.34
2017-04-10T03:38:42.443Z,58.53
2017-04-10T03:39:08.005Z,58.63
2017-04-10T03:39:33.551Z,58.63
2017-04-10T03:39:59.127Z,58.72
2017-04-10T03:40:24.755Z,58.53
2017-04-10T03:40:50.317Z,58.34
2017-04-10T03:41:15.883Z,58.34
2017-04-10T03:41:41.464Z,58.72
2017-04-10T03:42:07.013Z,58.34
2017-04-10T03:42:32.579Z,58.72
2017-04-10T03:42:58.136Z,58.24
2017-04-10T03:43:23.694Z,58.53
2017-04-10T03:43:49.252Z,58.53
2017-04-10T03:44:14.821Z,58.15
2017-04-10T03:44:40.389Z,58.72
2017-04-10T03:45:05.952Z,58.53
2017-04-10T03:45:31.524Z,58.53
2017-04-10T03:45:57.095Z,58.63
2017-04-10T03:46:22.709Z,58.72
2017-04-10T03:46:48.291Z,58.15
2017-04-10T03:47:13.862Z,58.44
2017-04-10T03:47:39.432Z,58.44
2017-04-10T03:48:05.005Z,58.24
2017-04-10T03:48:30.567Z,58.34
2017-04-10T03:48:56.320Z,58.53
2017-04-10T03:50:04.864Z,58.24
2017-04-10T03:52:12.131Z,58.34
2017-04-10T03:52:37.686Z,58.34
2017-04-10T03:53:03.241Z,58.24
2017-04-10T03:53:28.804Z,58.34
2017-04-10T03:53:54.396Z,58.24
2017-04-10T03:54:19.950Z,58.44
2017-04-10T03:54:45.493Z,58.44
2017-04-10T03:55:11.063Z,58.24
2017-04-10T03:55:36.621Z,58.44
2017-04-10T03:56:02.185Z,58.53
2017-04-10T03:56:27.753Z,58.24
2017-04-10T03:56:53.318Z,58.34
2017-04-10T03:57:18.873Z,58.24
2017-04-10T03:57:44.429Z,58.72
2017-04-10T03:58:09.988Z,58.44
2017-04-10T03:58:35.538Z,58.72
2017-04-10T03:59:01.086Z,58.15
2017-04-10T03:59:26.879Z,58.53
2017-04-10T03:59:52.416Z,58.24
2017-04-10T04:00:17.966Z,58.24
2017-04-10T04:00:43.526Z,58.72
2017-04-10T04:01:09.102Z,58.24
2017-04-10T04:01:34.682Z,58.72
2017-04-10T04:02:00.238Z,58.44
2017-04-10T04:02:25.810Z,58.44
2017-04-10T04:02:51.365Z,58.24
2017-04-10T04:03:16.955Z,58.44
2017-04-10T04:03:42.512Z,58.24
2017-04-10T04:04:08.061Z,58.24
2017-04-10T04:04:33.614Z,58.44
2017-04-10T04:04:59.171Z,58.53
2017-04-10T04:05:24.728Z,58.34
2017-04-10T04:05:50.312Z,58.24
2017-04-10T04:06:15.862Z,58.24
2017-04-10T04:06:41.413Z,58.24
2017-04-10T04:07:06.980Z,58.24
2017-04-10T04:07:32.554Z,58.24
2017-04-10T04:07:58.142Z,58.24
2017-04-10T04:08:23.699Z,58.24
2017-04-10T04:08:49.265Z,58.72
2017-04-10T04:09:14.823Z,58.15
2017-04-10T04:09:40.512Z,58.24
2017-04-10T04:10:06.069Z,58.82
2017-04-10T04:10:31.757Z,58.34
2017-04-10T04:10:57.313Z,58.24
2017-04-10T04:11:22.885Z,58.44
2017-04-10T04:11:48.463Z,58.53
2017-04-10T04:12:14.115Z,58.44
2017-04-10T04:12:39.717Z,58.63
2017-04-10T04:13:05.260Z,58.72
2017-04-10T04:13:30.841Z,58.63
2017-04-10T04:13:56.401Z,58.63
2017-04-10T04:14:21.964Z,58.24
2017-04-10T04:14:47.530Z,58.44
2017-04-10T04:15:13.093Z,58.72
2017-04-10T04:15:38.674Z,58.24
2017-04-10T04:16:04.281Z,58.24
2017-04-10T04:16:29.841Z,58.63
2017-04-10T04:16:55.415Z,58.72
2017-04-10T04:17:20.974Z,58.63
2017-04-10T04:17:46.663Z,58.72
2017-04-10T04:18:12.243Z,58.63
2017-04-10T04:18:37.929Z,58.63
2017-04-10T04:19:03.523Z,58.34
2017-04-10T04:19:29.074Z,58.72
2017-04-10T04:19:54.631Z,58.72
2017-04-10T04:20:20.202Z,58.63
2017-04-10T04:20:45.779Z,58.63
2017-04-10T04:21:11.368Z,58.63
2017-04-10T04:21:36.933Z,58.53
2017-04-10T04:22:02.500Z,58.63
2017-04-10T04:22:28.113Z,58.63
2017-04-10T04:22:53.674Z,58.63
2017-04-10T04:23:19.265Z,58.63
2017-04-10T04:23:44.916Z,58.63
2017-04-10T04:24:10.534Z,58.34
2017-04-10T04:24:36.100Z,58.44
2017-04-10T04:25:01.647Z,58.63
2017-04-10T04:25:27.312Z,58.82
2017-04-10T04:25:52.894Z,58.34
2017-04-10T04:26:18.461Z,58.24
2017-04-10T04:26:44.086Z,58.53
2017-04-10T04:27:09.645Z,58.15
2017-04-10T04:27:35.226Z,58.34
2017-04-10T04:28:00.751Z,58.72
2017-04-10T04:28:26.470Z,58.34
2017-04-10T04:28:52.027Z,58.72
2017-04-10T04:29:17.583Z,58.34
2017-04-10T04:29:43.174Z,58.34
2017-04-10T04:30:08.744Z,58.34
2017-04-10T04:30:34.351Z,58.44
2017-04-10T04:30:59.889Z,58.34
2017-04-10T04:31:25.442Z,58.53
2017-04-10T04:31:51.082Z,58.44
2017-04-10T04:32:16.683Z,58.53
2017-04-10T04:32:42.235Z,58.34
2017-04-10T04:33:07.893Z,58.15
2017-04-10T04:33:33.481Z,58.44
2017-04-10T04:33:59.040Z,58.53
2017-04-10T04:34:24.618Z,58.44
2017-04-10T04:34:50.185Z,58.24
2017-04-10T04:35:15.754Z,58.34
2017-04-10T04:35:41.315Z,58.34
2017-04-10T04:36:06.907Z,58.15
2017-04-10T04:36:32.459Z,58.34
2017-04-10T04:36:58.020Z,58.72
2017-04-10T04:37:23.673Z,58.44
2017-04-10T04:37:49.243Z,58.34
2017-04-10T04:38:14.814Z,58.34
2017-04-10T04:38:40.386Z,58.24
2017-04-10T04:39:05.952Z,58.24
2017-04-10T04:39:31.521Z,58.72
2017-04-10T04:39:57.107Z,58.53
2017-04-10T04:40:22.663Z,58.34
2017-04-10T04:40:48.220Z,58.72
2017-04-10T04:41:13.809Z,58.53
2017-04-10T04:41:39.354Z,58.34
2017-04-10T04:42:04.930Z,58.53
2017-04-10T04:42:30.503Z,58.34
2017-04-10T04:42:56.071Z,58.34
2017-04-10T04:43:21.645Z,58.34
2017-04-10T04:43:47.203Z,58.53
2017-04-10T04:44:12.756Z,58.34
2017-04-10T04:44:38.398Z,58.72
2017-04-10T04:45:03.961Z,58.63
2017-04-10T04:45:29.519Z,58.44
2017-04-10T04:45:55.181Z,58.72
2017-04-10T04:46:20.767Z,58.72
2017-04-10T04:46:46.331Z,58.53
2017-04-10T04:47:11.922Z,58.63
2017-04-10T04:47:37.581Z,58.63
2017-04-10T04:48:03.155Z,58.63
2017-04-10T04:48:28.842Z,58.63
2017-04-10T04:48:54.425Z,58.63
2017-04-10T04:49:19.999Z,58.6
2017-04-10T04:49:45.572Z,58.63
2017-04-10T04:50:11.181Z,58.53
2017-04-10T04:50:36.735Z,58.63
2017-04-10T04:51:02.298Z,58.44
2017-04-10T04:51:27.884Z,58.72
2017-04-10T04:52:31.472Z,58.53
2017-04-10T04:52:57.031Z,58.53
2017-04-10T04:53:22.593Z,58.63
2017-04-10T04:53:48.146Z,58.6
2017-04-10T04:54:13.693Z,58.53
2017-04-10T04:54:39.253Z,58.63
2017-04-10T04:55:04.832Z,58.63
2017-04-10T04:55:30.360Z,58.63
2017-04-10T04:55:55.911Z,58.63
2017-04-10T04:56:21.444Z,58.4
2017-04-10T04:56:47.033Z,58.53
2017-04-10T04:57:12.600Z,58.72
2017-04-10T04:57:38.161Z,58.6
2017-04-10T04:58:03.755Z,58.72
2017-04-10T04:58:29.334Z,58.63
2017-04-10T04:58:54.906Z,58.72
2017-04-10T04:59:53.354Z,58.6
2017-04-10T05:00:18.915Z,58.5
2017-04-10T05:00:44.505Z,58.53
2017-04-10T05:01:10.061Z,58.72
2017-04-10T05:01:35.638Z,58.7
2017-04-10T05:02:01.233Z,58.5
2017-04-10T05:02:26.795Z,58.6
2017-04-10T05:02:52.362Z,58.5
2017-04-10T05:03:18.020Z,58.7
2017-04-10T05:03:43.624Z,58.53
2017-04-10T05:04:09.183Z,58.6
2017-04-10T05:04:34.769Z,58.63
2017-04-10T05:05:00.405Z,58.72
2017-04-10T05:05:25.954Z,58.7
2017-04-10T05:05:51.513Z,58.63
2017-04-10T05:06:55.043Z,58.72
2017-04-10T05:07:20.607Z,58.53
2017-04-10T05:07:46.256Z,58.7
2017-04-10T05:08:11.815Z,58.72
2017-04-10T05:08:37.362Z,58.6
2017-04-10T05:09:02.959Z,58.53
2017-04-10T05:09:28.657Z,58.7
2017-04-10T05:09:54.214Z,58.5
2017-04-10T05:10:19.764Z,58.6
2017-04-10T05:10:45.354Z,58.5
2017-04-10T05:11:10.912Z,58.6
2017-04-10T05:11:36.490Z,58.5
2017-04-10T05:12:02.090Z,58.6
2017-04-10T05:12:27.641Z,58.63
2017-04-10T05:12:53.245Z,58.5
2017-04-10T05:13:18.791Z,58.7
2017-04-10T05:13:44.332Z,58.7
2017-04-10T05:14:09.908Z,58.79
2017-04-10T05:14:35.478Z,58.7
2017-04-10T05:15:01.078Z,58.15
2017-04-10T05:15:26.641Z,58.4
2017-04-10T05:15:52.191Z,58.5
2017-04-10T05:16:17.993Z,58.22
2017-04-10T05:16:43.482Z,58.5
2017-04-10T05:17:09.042Z,58.31
2017-04-10T05:17:34.632Z,58.6
2017-04-10T05:18:00.191Z,58.31
2017-04-10T05:18:25.776Z,58.5
2017-04-10T05:18:51.356Z,58.31
2017-04-10T05:19:16.924Z,58.4
2017-04-10T05:19:43.005Z,58.98
2017-04-10T05:20:08.565Z,58.98
2017-04-10T05:20:34.151Z,58.6
2017-04-10T05:20:59.714Z,58.79
2017-04-10T05:21:25.315Z,58.89
2017-04-10T05:21:50.895Z,58.79
2017-04-10T05:22:16.453Z,58.89
2017-04-10T05:22:42.076Z,58.89
2017-04-10T05:23:07.643Z,58.89
2017-04-10T05:23:33.213Z,58.89
2017-04-10T05:24:41.778Z,58.89
2017-04-10T05:25:07.334Z,58.5
2017-04-10T05:27:14.529Z,58.98
2017-04-10T05:27:40.094Z,58.6
2017-04-10T05:28:05.682Z,58.6
2017-04-10T05:28:31.240Z,58.6
2017-04-10T05:28:56.811Z,58.7
2017-04-10T05:29:22.451Z,58.7
2017-04-10T05:29:48.024Z,58.7
2017-04-10T05:30:13.707Z,58.89
2017-04-10T05:30:39.284Z,58.79
2017-04-10T05:31:04.853Z,58.5
2017-04-10T05:31:30.422Z,58.6
2017-04-10T05:31:55.984Z,58.89
2017-04-10T05:32:21.554Z,58.63
2017-04-10T05:32:47.125Z,58.5
2017-04-10T05:33:12.748Z,58.5
2017-04-10T05:33:38.394Z,58.7
2017-04-10T05:34:03.965Z,58.5
2017-04-10T05:34:29.516Z,58.89
2017-04-10T05:34:55.080Z,58.31
2017-04-10T05:35:20.820Z,58.6
2017-04-10T05:35:46.385Z,58.6
2017-04-10T05:36:12.055Z,58.6
2017-04-10T05:36:37.609Z,58.6
2017-04-10T05:37:04.199Z,58.89
2017-04-10T05:37:29.768Z,58.89
2017-04-10T05:37:55.322Z,58.7
2017-04-10T05:38:21.033Z,58.6
2017-04-10T05:38:46.584Z,58.6
2017-04-10T05:39:12.153Z,58.89
2017-04-10T05:39:37.794Z,58.6
2017-04-10T05:40:03.435Z,58.79
2017-04-10T05:40:29.020Z,58.4
2017-04-10T05:40:54.597Z,58.7
2017-04-10T05:41:20.227Z,58.6
2017-04-10T05:41:45.866Z,58.4
2017-04-10T05:42:11.420Z,58.5
2017-04-10T05:42:37.053Z,58.6
2017-04-10T05:43:02.678Z,58.22
2017-04-10T05:43:28.247Z,58.44
2017-04-10T05:43:53.806Z,58.4
2017-04-10T05:44:19.383Z,58.6
2017-04-10T05:44:44.943Z,58.4
2017-04-10T05:45:10.494Z,58.4
2017-04-10T05:45:36.076Z,58.4
2017-04-10T05:46:01.634Z,58.7
2017-04-10T05:46:27.211Z,58.31
2017-04-10T05:46:52.771Z,58.31
2017-04-10T05:47:18.332Z,58.31
2017-04-10T05:47:44.000Z,58.44
2017-04-10T05:48:09.559Z,58.31
2017-04-10T05:48:35.106Z,58.4
2017-04-10T05:49:00.651Z,58.5
2017-04-10T05:49:26.191Z,58.4
2017-04-10T05:49:51.780Z,58.31
2017-04-10T05:50:17.393Z,58.6
2017-04-10T05:50:42.951Z,58.31
2017-04-10T05:51:08.524Z,58.79
2017-04-10T05:51:34.096Z,58.5
2017-04-10T05:51:59.690Z,58.22
2017-04-10T05:52:25.240Z,58.6
2017-04-10T05:52:50.803Z,58.31
2017-04-10T05:53:16.364Z,58.6
2017-04-10T05:53:41.920Z,58.31
2017-04-10T05:54:07.583Z,58.4
2017-04-10T05:54:33.154Z,58.4
2017-04-10T05:54:58.734Z,58.31
2017-04-10T05:55:24.307Z,58.4
2017-04-10T05:55:49.874Z,58.5
2017-04-10T05:56:15.435Z,58.31
2017-04-10T05:56:41.011Z,58.4
2017-04-10T05:57:06.564Z,58.6
2017-04-10T05:57:32.139Z,58.5
2017-04-10T05:57:58.613Z,58.4
2017-04-10T05:58:24.254Z,58.6
2017-04-10T05:58:49.861Z,58.5
2017-04-10T05:59:15.416Z,58.6
2017-04-10T05:59:40.977Z,58.4
2017-04-10T06:00:06.527Z,58.31
2017-04-10T06:01:20.189Z,58.22
2017-04-10T06:01:45.775Z,58.31
2017-04-10T06:02:11.343Z,58.4
2017-04-10T06:02:36.911Z,58.4
2017-04-10T06:03:02.483Z,58.7
2017-04-10T06:03:28.083Z,58.4
2017-04-10T06:03:53.648Z,58.12
2017-04-10T06:04:19.195Z,58.5
2017-04-10T06:04:44.755Z,58.22
2017-04-10T06:05:10.557Z,58.22
2017-04-10T06:05:36.082Z,58.6
2017-04-10T06:06:01.639Z,58.31
2017-04-10T06:06:27.354Z,58.31
2017-04-10T06:06:52.903Z,58.4
2017-04-10T06:07:18.456Z,58.22
2017-04-10T06:07:43.993Z,58.6
2017-04-10T06:08:09.569Z,58.22
2017-04-10T06:08:35.162Z,58.22
2017-04-10T06:09:00.708Z,58.4
2017-04-10T06:09:26.257Z,58.22
2017-04-10T06:09:51.830Z,58.4
2017-04-10T06:10:17.458Z,58.4
2017-04-10T06:10:43.004Z,58.31
2017-04-10T06:11:08.543Z,58.31
2017-04-10T06:11:34.088Z,58.6
2017-04-10T06:11:59.614Z,58.31
2017-04-10T06:12:25.331Z,58.31
2017-04-10T06:12:50.874Z,58.5
2017-04-10T06:13:16.412Z,58.6
2017-04-10T06:13:42.070Z,58.6
2017-04-10T06:14:07.652Z,58.5
2017-04-10T06:14:33.284Z,58.6
2017-04-10T06:14:58.853Z,58.6
2017-04-10T06:15:24.500Z,58.5
2017-04-10T06:15:50.102Z,58.31
2017-04-10T06:16:15.669Z,58.31
2017-04-10T06:16:41.331Z,58.4
2017-04-10T06:17:06.882Z,58.5
2017-04-10T06:17:32.445Z,58.6
2017-04-10T06:17:58.022Z,58.5
2017-04-10T06:18:23.595Z,58.22
2017-04-10T06:18:49.175Z,58.22
2017-04-10T06:19:14.775Z,58.4
2017-04-10T06:19:40.366Z,58.7
2017-04-10T06:20:06.237Z,58.31
2017-04-10T06:20:31.795Z,58.4
2017-04-10T06:20:57.392Z,58.5
2017-04-10T06:21:22.979Z,58.4
2017-04-10T06:21:48.566Z,58.5
2017-04-10T06:22:14.139Z,58.31
2017-04-10T06:22:39.704Z,58.4
2017-04-10T06:23:05.490Z,58.22
2017-04-10T06:23:31.048Z,58.5
2017-04-10T06:23:56.656Z,58.22
2017-04-10T06:24:22.307Z,58.5
2017-04-10T06:24:47.873Z,58.6
2017-04-10T06:25:13.445Z,58.31
2017-04-10T06:25:39.027Z,58.6
2017-04-10T06:26:04.623Z,58.4
2017-04-10T06:26:30.203Z,58.4
2017-04-10T06:26:55.793Z,58.6
2017-04-10T06:27:21.344Z,58.31
2017-04-10T06:27:46.890Z,58.22
2017-04-10T06:28:12.510Z,58.22
2017-04-10T06:28:38.075Z,58.22
2017-04-10T06:29:03.642Z,58.4
2017-04-10T06:29:29.198Z,58.31
2017-04-10T06:30:22.553Z,58.31
2017-04-10T06:30:48.111Z,58.31
2017-04-10T06:31:13.722Z,58.22
2017-04-10T06:31:39.373Z,58.5
2017-04-10T06:32:04.942Z,58.31
2017-04-10T06:32:30.521Z,58.4
2017-04-10T06:32:56.077Z,58.5
2017-04-10T06:33:21.623Z,58.22
2017-04-10T06:33:47.177Z,58.31
2017-04-10T06:34:12.798Z,58.5
2017-04-10T06:34:38.374Z,58.4
2017-04-10T06:35:03.934Z,58.31
2017-04-10T06:35:29.498Z,58.22
2017-04-10T06:35:55.106Z,58.5
2017-04-10T06:36:20.678Z,58.4
2017-04-10T06:36:46.223Z,58.31
2017-04-10T06:37:11.787Z,58.6
2017-04-10T06:37:37.520Z,58.4
2017-04-10T06:38:03.088Z,58.12
2017-04-10T06:38:28.664Z,58.22
2017-04-10T06:39:42.496Z,58.22
2017-04-10T06:40:08.074Z,58.4
2017-04-10T06:40:33.675Z,58.31
2017-04-10T06:40:59.252Z,58.31
2017-04-10T06:41:24.924Z,58.5
2017-04-10T06:41:50.492Z,58.4
2017-04-10T06:42:16.123Z,58.5
2017-04-10T06:43:09.110Z,58.22
2017-04-10T06:43:34.677Z,58.4
2017-04-10T06:44:00.245Z,58.5
2017-04-10T06:44:25.860Z,58.31
2017-04-10T06:44:51.545Z,58.4
2017-04-10T06:45:17.110Z,58.22
2017-04-10T06:45:42.684Z,58.31
2017-04-10T06:46:08.266Z,58.6
2017-04-10T06:46:33.914Z,58.5
2017-04-10T06:46:59.481Z,58.4
2017-04-10T06:47:25.076Z,58.5
2017-04-10T06:47:50.663Z,58.22
2017-04-10T06:48:16.223Z,58.5
2017-04-10T06:48:41.819Z,58.31
2017-04-10T06:49:07.376Z,58.22
2017-04-10T06:49:32.950Z,58.5
2017-04-10T06:49:58.509Z,58.22
2017-04-10T06:50:24.091Z,58.12
2017-04-10T06:50:49.670Z,58.22
2017-04-10T06:51:15.284Z,58.22
2017-04-10T06:51:40.843Z,58.4
2017-04-10T06:52:06.391Z,58.4
2017-04-10T06:52:32.059Z,58.31
2017-04-10T06:52:57.618Z,58.31
2017-04-10T06:53:23.195Z,58.4
2017-04-10T06:53:48.775Z,58.22
2017-04-10T06:54:14.345Z,58.4
2017-04-10T06:54:39.898Z,58.4
2017-04-10T06:55:05.473Z,58.4
2017-04-10T06:55:31.050Z,58.7
2017-04-10T06:55:56.602Z,58.89
2017-04-10T06:56:22.159Z,58.6
2017-04-10T06:56:47.866Z,58.7
2017-04-10T06:57:13.420Z,58.7
2017-04-10T06:57:39.084Z,58.98
2017-04-10T06:58:04.741Z,58.6
2017-04-10T06:58:30.223Z,58.89
2017-04-10T06:58:55.860Z,58.98
2017-04-10T06:59:21.499Z,58.98
2017-04-10T06:59:47.070Z,58.89
2017-04-10T07:00:50.515Z,58.4
2017-04-10T07:01:16.058Z,58.79
2017-04-10T07:03:23.471Z,58.6
2017-04-10T07:03:49.166Z,58.6
2017-04-10T07:04:14.723Z,58.6
2017-04-10T07:04:40.293Z,58.4
2017-04-10T07:05:05.852Z,58.4
2017-04-10T07:05:31.539Z,58.4
2017-04-10T07:05:57.261Z,58.7
2017-04-10T07:06:22.814Z,58.12
2017-04-10T07:06:48.405Z,58.02
2017-04-10T07:07:13.975Z,58.12
2017-04-10T07:07:39.537Z,58.22
2017-04-10T07:08:05.093Z,58.22
2017-04-10T07:08:30.661Z,57.83
2017-04-10T07:08:56.230Z,57.83
2017-04-10T07:09:21.799Z,58.02
2017-04-10T07:09:47.344Z,57.83
2017-04-10T07:10:12.900Z,57.73
2017-04-10T07:10:38.556Z,57.83
2017-04-10T07:11:04.134Z,58.02
2017-04-10T07:11:29.711Z,57.64
2017-04-10T07:11:55.278Z,57.83
2017-04-10T07:12:20.831Z,58.02
2017-04-10T07:12:46.389Z,57.64
2017-04-10T07:13:11.940Z,57.45
2017-04-10T07:13:37.508Z,57.83
2017-04-10T07:14:03.174Z,57.73
2017-04-10T07:14:28.744Z,58.02
2017-04-10T07:14:54.303Z,57.54
2017-04-10T07:15:19.844Z,57.54
2017-04-10T07:15:45.565Z,57.64
2017-04-10T07:16:11.113Z,58.02
2017-04-10T07:16:36.700Z,57.83
2017-04-10T07:17:02.265Z,57.64
2017-04-10T07:17:27.836Z,57.92
2017-04-10T07:17:53.393Z,57.83
2017-04-10T07:18:18.942Z,57.83
2017-04-10T07:18:44.513Z,57.92
2017-04-10T07:19:10.070Z,57.64
2017-04-10T07:19:35.654Z,57.64
2017-04-10T07:20:01.210Z,57.64
2017-04-10T07:20:26.766Z,57.73
2017-04-10T07:20:52.342Z,57.83
2017-04-10T07:21:17.910Z,57.83
2017-04-10T07:21:43.526Z,57.83
2017-04-10T07:22:09.115Z,57.92
2017-04-10T07:22:34.686Z,58.02
2017-04-10T07:23:00.271Z,57.92
2017-04-10T07:23:25.832Z,58.02
2017-04-10T07:23:51.378Z,57.92
2017-04-10T07:24:16.960Z,58.12
2017-04-10T07:24:42.533Z,58.22
2017-04-10T07:25:08.178Z,58.02
2017-04-10T07:25:33.682Z,57.73
2017-04-10T07:25:59.241Z,57.83
2017-04-10T07:26:24.806Z,57.83
2017-04-10T07:26:50.433Z,57.83
2017-04-10T07:27:16.004Z,58.12
2017-04-10T07:27:41.568Z,58.02
2017-04-10T07:28:07.131Z,58.22
2017-04-10T07:28:32.867Z,58.02
2017-04-10T07:28:58.435Z,58.02
2017-04-10T07:29:24.003Z,57.92
2017-04-10T07:29:49.581Z,57.92
2017-04-10T07:30:15.159Z,58.22
2017-04-10T07:30:40.735Z,58.22
2017-04-10T07:31:06.386Z,58.02
2017-04-10T07:31:31.992Z,57.64
2017-04-10T07:31:57.575Z,58.22
2017-04-10T07:32:23.308Z,57.92
2017-04-10T07:32:48.861Z,57.92
2017-04-10T07:33:14.424Z,58.12
2017-04-10T07:33:40.012Z,58.22
2017-04-10T07:34:05.557Z,58.12
2017-04-10T07:34:31.122Z,58.02
2017-04-10T07:34:56.694Z,58.02
2017-04-10T07:35:22.274Z,58.02
2017-04-10T07:35:47.911Z,58.22
2017-04-10T07:36:13.489Z,57.83
2017-04-10T07:36:39.065Z,58.22
2017-04-10T07:37:04.630Z,58.12
2017-04-10T07:37:30.193Z,58.22
2017-04-10T07:37:55.810Z,58.22
2017-04-10T07:38:21.373Z,57.92
2017-04-10T07:38:46.955Z,58.22
2017-04-10T07:39:12.631Z,57.64
2017-04-10T07:39:38.195Z,57.83
2017-04-10T07:40:03.759Z,58.02
2017-04-10T07:40:29.468Z,57.83
2017-04-10T07:40:55.024Z,57.83
2017-04-10T07:41:20.591Z,57.64
2017-04-10T07:41:46.293Z,58.12
2017-04-10T07:42:11.909Z,58.12
2017-04-10T07:42:37.471Z,58.12
2017-04-10T07:43:03.125Z,58.02
2017-04-10T07:43:28.725Z,58.02
2017-04-10T07:43:58.881Z,58.02
2017-04-10T07:44:24.472Z,58.02
2017-04-10T07:44:50.133Z,57.83
2017-04-10T07:45:15.745Z,57.83
2017-04-10T07:45:41.276Z,58.02
2017-04-10T07:46:06.852Z,58.12
2017-04-10T07:46:32.430Z,58.22
2017-04-10T07:46:57.980Z,58.02
2017-04-10T07:47:23.570Z,57.92
2017-04-10T07:47:49.134Z,58.7
2017-04-10T07:48:14.693Z,58.6
2017-04-10T07:48:40.258Z,58.4
2017-04-10T07:49:05.918Z,58.7
2017-04-10T07:49:31.585Z,58.7
2017-04-10T07:49:57.150Z,58.5
2017-04-10T07:50:22.712Z,58.6
2017-04-10T07:50:48.267Z,58.7
2017-04-10T07:51:13.823Z,58.5
2017-04-10T07:52:17.428Z,58.6
2017-04-10T07:52:43.008Z,58.6
2017-04-10T07:53:08.566Z,58.5
2017-04-10T07:53:34.114Z,58.31
2017-04-10T07:53:59.696Z,58.7
2017-04-10T07:54:25.262Z,58.31
2017-04-10T07:54:50.826Z,58.5
2017-04-10T07:55:16.404Z,58.7
2017-04-10T07:55:42.048Z,58.6
2017-04-10T07:56:07.633Z,58.5
2017-04-10T07:56:33.214Z,58.7
2017-04-10T07:56:58.825Z,58.4
2017-04-10T07:57:24.397Z,58.22
2017-04-10T07:57:49.994Z,58.4
2017-04-10T07:58:15.552Z,58.22
2017-04-10T07:58:41.115Z,58.7
2017-04-10T07:59:06.672Z,58.4
2017-04-10T07:59:32.291Z,58.5
2017-04-10T07:59:57.873Z,58.6
2017-04-10T08:00:23.450Z,58.7
2017-04-10T08:00:49.109Z,58.6
2017-04-10T08:01:14.715Z,58.6
2017-04-10T08:01:40.274Z,58.31
2017-04-10T08:02:05.834Z,58.31
2017-04-10T08:02:31.461Z,58.5
2017-04-10T08:02:57.019Z,58.4
2017-04-10T08:03:22.566Z,58.5
2017-04-10T08:03:48.134Z,58.5
2017-04-10T08:04:13.663Z,58.89
2017-04-10T08:04:39.262Z,58.5
2017-04-10T08:05:04.871Z,58.7
2017-04-10T08:05:30.403Z,58.79
2017-04-10T08:05:55.999Z,58.7
2017-04-10T08:06:21.542Z,58.6
2017-04-10T08:06:47.104Z,58.6
2017-04-10T08:07:12.640Z,58.6
2017-04-10T08:07:38.225Z,58.5
2017-04-10T08:08:03.773Z,58.31
2017-04-10T08:08:29.331Z,58.6
2017-04-10T08:08:54.860Z,58.6
2017-04-10T08:09:20.405Z,58.6
2017-04-10T08:09:45.981Z,58.6
2017-04-10T08:10:11.569Z,58.4
2017-04-10T08:10:37.104Z,58.79
2017-04-10T08:11:02.695Z,58.4
2017-04-10T08:11:28.243Z,58.22
2017-04-10T08:11:53.792Z,58.22
2017-04-10T08:12:19.360Z,58.4
2017-04-10T08:12:44.923Z,58.5
2017-04-10T08:13:10.478Z,58.4
2017-04-10T08:13:36.006Z,58.4
2017-04-10T08:14:01.553Z,58.31
2017-04-10T08:14:27.142Z,58.22
2017-04-10T08:14:52.730Z,58.79
2017-04-10T08:15:18.361Z,58.22
2017-04-10T08:15:44.000Z,58.31
2017-04-10T08:16:09.544Z,58.4
2017-04-10T08:16:35.131Z,58.5
2017-04-10T08:17:00.703Z,58.98
2017-04-10T08:17:26.276Z,58.5
2017-04-10T08:17:51.883Z,58.4
2017-04-10T08:18:17.583Z,58.22
2017-04-10T08:18:43.132Z,58.22
2017-04-10T08:19:08.704Z,58.5
2017-04-10T08:19:34.255Z,58.5
2017-04-10T08:19:59.834Z,58.4
2017-04-10T08:20:25.377Z,58.6
2017-04-10T08:20:50.938Z,58.5
2017-04-10T08:21:16.503Z,58.6
2017-04-10T08:21:42.091Z,58.6
2017-04-10T08:22:07.709Z,58.6
2017-04-10T08:22:33.297Z,58.6
2017-04-10T08:22:58.851Z,58.22
2017-04-10T08:23:24.391Z,58.31
2017-04-10T08:23:49.972Z,58.5
2017-04-10T08:24:15.509Z,58.4
2017-04-10T08:24:41.059Z,58.5
2017-04-10T08:25:06.634Z,58.4
2017-04-10T08:25:32.204Z,58.4
2017-04-10T08:25:57.813Z,58.22
2017-04-10T08:26:23.354Z,58.5
2017-04-10T08:26:48.912Z,58.5
2017-04-10T08:27:14.707Z,58.31
2017-04-10T08:27:40.281Z,58.12
2017-04-10T08:28:05.836Z,58.22
2017-04-10T08:28:31.489Z,58.22
2017-04-10T08:28:57.035Z,58.12
2017-04-10T08:29:23.212Z,58.12
2017-04-10T08:29:48.802Z,58.31
2017-04-10T08:30:14.370Z,58.79
2017-04-10T08:30:39.943Z,58.6
2017-04-10T08:31:05.522Z,58.6
2017-04-10T08:31:31.111Z,58.6
2017-04-10T08:31:56.695Z,58.79
2017-04-10T08:32:22.275Z,58.6
2017-04-10T08:32:47.888Z,58.7
2017-04-10T08:33:13.524Z,58.4
2017-04-10T08:33:39.114Z,58.6
2017-04-10T08:34:04.722Z,58.6
2017-04-10T08:34:30.353Z,58.6
2017-04-10T08:34:56.011Z,58.5
2017-04-10T08:35:21.663Z,58.7
2017-04-10T08:35:47.248Z,58.7
2017-04-10T08:36:12.804Z,58.7
2017-04-10T08:36:38.432Z,58.79
2017-04-10T08:37:03.990Z,58.79
2017-04-10T08:37:29.549Z,58.6
2017-04-10T08:37:55.110Z,58.7
2017-04-10T08:38:20.682Z,58.6
2017-04-10T08:38:46.275Z,58.79
2017-04-10T08:39:11.831Z,58.4
2017-04-10T08:39:37.388Z,58.79
2017-04-10T08:40:02.954Z,58.6
2017-04-10T08:40:28.697Z,58.6
2017-04-10T08:40:54.329Z,58.4
2017-04-10T08:41:19.870Z,58.79
2017-04-10T08:41:45.422Z,58.7
2017-04-10T08:42:11.030Z,58.79
2017-04-10T08:42:36.616Z,58.79
2017-04-10T08:43:02.213Z,58.6
2017-04-10T08:43:27.824Z,58.79
2017-04-10T08:43:53.413Z,58.7
2017-04-10T08:44:18.979Z,58.31
2017-04-10T08:44:44.614Z,58.7
2017-04-10T08:45:10.214Z,58.7
2017-04-10T08:45:35.871Z,58.79
2017-04-10T08:46:01.452Z,58.98
2017-04-10T08:46:27.006Z,58.7